createdAt,value
2023-01-01T00:01:41.935Z,5.36
2023-01-01T00:04:12.470Z,5.14
2023-01-01T00:06:39.766Z,5.23
2023-01-01T00:09:25.310Z,5.32
2023-01-01T00:11:52.478Z,5.14
2023-01-01T00:14:19.372Z,5.27
2023-01-01T00:16:46.438Z,5.30
2023-01-01T00:19:13.366Z,5.20
2023-01-01T00:21:40.478Z,5.24
2023-01-01T00:24:07.816Z,5.20
2023-01-01T00:26:35.679Z,5.20
2023-01-01T00:29:03.038Z,5.20
2023-01-01T00:31:30.396Z,5.23
2023-01-01T00:33:57.798Z,5.09
2023-01-01T00:36:26.369Z,5.18
2023-01-01T00:38:53.557Z,5.28
2023-01-01T00:41:20.627Z,5.03
2023-01-01T00:43:47.528Z,5.14
2023-01-01T00:46:14.746Z,5.04
2023-01-01T00:48:41.749Z,5.11
2023-01-01T00:51:08.755Z,5.03
2023-01-01T00:53:36.064Z,5.10
2023-01-01T00:56:03.041Z,5.06
2023-01-01T00:58:30.034Z,5.16
2023-01-01T01:00:57.033Z,5.12
2023-01-01T01:03:30.660Z,5.06
2023-01-01T01:06:09.936Z,5.03
2023-01-01T01:08:38.345Z,5.00
2023-01-01T01:11:20.894Z,5.01
2023-01-01T01:13:49.219Z,5.10
2023-01-01T01:16:18.482Z,5.00
2023-01-01T01:18:45.566Z,4.96
2023-01-01T01:21:15.570Z,5.02
2023-01-01T01:23:42.643Z,5.09
2023-01-01T01:26:14.124Z,4.96
2023-01-01T01:28:47.064Z,5.07
2023-01-01T01:31:16.634Z,4.99
2023-01-01T01:33:43.996Z,4.98
2023-01-01T01:36:11.136Z,5.00
2023-01-01T01:38:38.397Z,4.87
2023-01-01T01:41:05.629Z,4.92
2023-01-01T01:43:32.508Z,5.09
2023-01-01T01:46:05.999Z,5.09
2023-01-01T01:48:39.749Z,4.89
2023-01-01T01:51:06.595Z,4.88
2023-01-01T01:53:35.146Z,4.82
2023-01-01T01:56:04.048Z,4.92
2023-01-01T01:58:31.867Z,4.95
2023-01-01T02:00:58.917Z,4.86
2023-01-01T02:03:37.897Z,4.98
2023-01-01T02:06:05.123Z,4.98
2023-01-01T02:08:32.683Z,4.88
2023-01-01T02:10:59.761Z,5.01
2023-01-01T02:13:27.710Z,4.83
2023-01-01T02:16:02.881Z,4.99
2023-01-01T02:18:59.544Z,4.96
2023-01-01T02:22:13.916Z,4.93
2023-01-01T02:25:02.321Z,4.76
2023-01-01T02:28:00.347Z,4.92
2023-01-01T02:30:28.684Z,4.75
2023-01-01T02:32:59.285Z,4.64
2023-01-01T02:35:35.286Z,4.84
2023-01-01T02:38:25.083Z,4.75
2023-01-01T02:40:55.496Z,4.90
2023-01-01T02:43:25.030Z,4.82
2023-01-01T02:45:53.750Z,4.87
2023-01-01T02:48:50.085Z,4.76
2023-01-01T02:51:23.007Z,4.76
2023-01-01T02:53:59.252Z,4.86
2023-01-01T02:56:43.291Z,4.84
2023-01-01T02:59:31.801Z,4.67
2023-01-01T03:02:13.653Z,4.61
2023-01-01T03:05:06.652Z,4.76
2023-01-01T03:07:53.323Z,4.55
2023-01-01T03:10:29.815Z,4.61
2023-01-01T03:13:18.323Z,4.79
2023-01-01T03:16:00.077Z,4.69
2023-01-01T03:18:48.530Z,4.56
2023-01-01T03:23:49.860Z,4.76
2023-01-01T03:26:17.446Z,4.74
2023-01-01T03:28:47.753Z,4.62
2023-01-01T03:31:15.804Z,4.58
2023-01-01T03:33:45.327Z,4.58
2023-01-01T03:36:14.996Z,4.62
2023-01-01T03:38:49.499Z,4.73
2023-01-01T03:41:41.189Z,4.65
2023-01-01T03:44:12.540Z,4.68
2023-01-01T03:46:39.574Z,4.59
2023-01-01T03:49:07.964Z,4.68
2023-01-01T03:51:52.997Z,4.66
2023-01-01T03:54:25.980Z,4.66
2023-01-01T03:56:56.016Z,4.64
2023-01-01T03:59:26.057Z,4.59
2023-01-01T04:01:54.126Z,4.54
2023-01-01T04:04:21.160Z,4.56
2023-01-01T04:06:48.200Z,4.49
2023-01-01T04:09:20.063Z,4.47
2023-01-01T04:12:02.062Z,4.60
2023-01-01T04:14:33.483Z,4.59
2023-01-01T04:17:00.938Z,4.47
2023-01-01T04:19:27.961Z,4.38
2023-01-01T04:21:55.001Z,4.46
2023-01-01T04:24:23.232Z,4.40
2023-01-01T04:26:51.378Z,4.55
2023-01-01T04:29:18.819Z,4.34
2023-01-01T04:31:45.915Z,4.29
2023-01-01T04:34:13.002Z,4.32
2023-01-01T04:36:39.917Z,4.47
2023-01-01T04:39:06.949Z,4.24
2023-01-01T04:41:34.137Z,4.42
2023-01-01T04:44:01.298Z,4.18
2023-01-01T04:46:28.272Z,4.30
2023-01-01T04:48:55.261Z,4.28
2023-01-01T04:51:22.499Z,4.19
2023-01-01T04:53:49.594Z,4.26
2023-01-01T04:56:18.372Z,4.21
2023-01-01T04:58:46.059Z,4.16
2023-01-01T05:01:21.836Z,4.10
2023-01-01T05:03:49.210Z,4.26
2023-01-01T05:06:16.216Z,4.20
2023-01-01T05:08:45.212Z,4.30
2023-01-01T05:11:14.700Z,4.28
2023-01-01T05:13:45.678Z,4.08
2023-01-01T05:16:21.907Z,4.14
2023-01-01T05:18:49.072Z,4.12
2023-01-01T05:21:17.987Z,4.02
2023-01-01T05:23:45.053Z,4.26
2023-01-01T05:26:17.295Z,4.26
2023-01-01T05:28:44.440Z,4.24
2023-01-01T05:31:13.793Z,4.14
2023-01-01T05:33:41.079Z,4.14
2023-01-01T05:36:09.411Z,4.14
2023-01-01T05:38:36.581Z,4.03
2023-01-01T05:41:08.216Z,3.94
2023-01-01T05:43:36.459Z,4.01
2023-01-01T05:46:06.512Z,4.17
2023-01-01T05:48:34.808Z,3.99
2023-01-01T05:51:09.679Z,3.97
2023-01-01T05:53:37.182Z,3.86
2023-01-01T05:56:04.473Z,3.89
2023-01-01T05:58:31.888Z,4.00
2023-01-01T06:01:26.050Z,4.05
2023-01-01T06:03:54.022Z,3.97
2023-01-01T06:06:25.379Z,3.90
2023-01-01T06:08:56.922Z,3.82
2023-01-01T06:11:24.207Z,4.07
2023-01-01T06:13:58.846Z,3.97
2023-01-01T06:16:26.244Z,3.88
2023-01-01T06:18:53.527Z,3.94
2023-01-01T06:21:22.069Z,3.79
2023-01-01T06:23:49.113Z,3.78
2023-01-01T06:26:22.724Z,3.83
2023-01-01T06:28:49.760Z,3.80
2023-01-01T06:31:18.214Z,3.71
2023-01-01T06:33:45.422Z,3.75
2023-01-01T06:36:13.870Z,3.79
2023-01-01T06:38:42.549Z,3.90
2023-01-01T06:41:16.578Z,3.92
2023-01-01T06:43:43.646Z,3.85
2023-01-01T06:46:24.692Z,3.78
2023-01-01T06:48:57.095Z,3.58
2023-01-01T06:51:28.196Z,3.83
2023-01-01T06:53:55.293Z,3.74
2023-01-01T06:56:23.363Z,3.85
2023-01-01T06:58:50.490Z,3.85
2023-01-01T07:01:19.312Z,3.73
2023-01-01T07:03:52.826Z,3.72
2023-01-01T07:06:19.957Z,3.68
2023-01-01T07:08:46.947Z,3.54
2023-01-01T07:11:14.101Z,3.60
2023-01-01T07:13:41.065Z,3.68
2023-01-01T07:16:12.670Z,3.68
2023-01-01T07:18:40.731Z,3.64
2023-01-01T07:21:24.975Z,3.58
2023-01-01T07:23:59.064Z,3.60
2023-01-01T07:26:26.506Z,3.62
2023-01-01T07:28:53.588Z,3.71
2023-01-01T07:31:20.727Z,3.57
2023-01-01T07:33:48.992Z,3.80
2023-01-01T07:36:16.442Z,3.60
2023-01-01T07:38:43.443Z,3.79
2023-01-01T07:41:10.388Z,3.65
2023-01-01T07:43:37.425Z,3.75
2023-01-01T07:46:04.706Z,3.52
2023-01-01T07:48:36.140Z,3.65
2023-01-01T07:51:06.854Z,3.76
2023-01-01T07:53:36.563Z,3.64
2023-01-01T07:56:03.616Z,3.77
2023-01-01T07:58:30.581Z,3.69
2023-01-01T08:00:57.570Z,3.79
2023-01-01T08:03:24.618Z,3.66
2023-01-01T08:05:52.386Z,3.71
2023-01-01T08:08:19.378Z,3.85
2023-01-01T08:10:46.333Z,3.64
2023-01-01T08:13:13.339Z,3.90
2023-01-01T08:15:40.426Z,3.73
2023-01-01T08:18:07.430Z,3.78
2023-01-01T08:20:34.719Z,3.69
2023-01-01T08:23:06.988Z,3.91
2023-01-01T08:25:35.390Z,3.77
2023-01-01T08:28:02.439Z,3.80
2023-01-01T08:30:29.515Z,3.86
2023-01-01T08:32:56.471Z,3.82
2023-01-01T08:35:25.861Z,3.90
2023-01-01T08:37:55.596Z,3.98
2023-01-01T08:40:22.683Z,3.95
2023-01-01T08:42:52.552Z,4.04
2023-01-01T08:45:22.349Z,3.99
2023-01-01T08:47:49.287Z,3.99
2023-01-01T08:50:16.613Z,4.00
2023-01-01T08:52:43.565Z,3.94
2023-01-01T08:55:10.727Z,3.99
2023-01-01T08:57:37.759Z,4.13
2023-01-01T09:00:09.794Z,4.01
2023-01-01T09:02:36.907Z,4.13
2023-01-01T09:05:04.087Z,4.08
2023-01-01T09:07:31.198Z,4.14
2023-01-01T09:09:58.193Z,4.16
2023-01-01T09:12:25.168Z,4.14
2023-01-01T09:14:52.524Z,4.17
2023-01-01T09:17:21.874Z,4.38
2023-01-01T09:19:49.226Z,4.29
2023-01-01T09:22:16.205Z,4.41
2023-01-01T09:24:43.174Z,4.37
2023-01-01T09:27:10.089Z,4.41
2023-01-01T09:29:37.107Z,4.37
2023-01-01T09:32:04.221Z,4.51
2023-01-01T09:34:31.229Z,4.55
2023-01-01T09:36:58.284Z,4.74
2023-01-01T09:39:25.256Z,4.69
2023-01-01T09:42:25.592Z,5.00
2023-01-01T09:45:06.965Z,5.07
2023-01-01T09:47:41.615Z,4.98
2023-01-01T09:50:33.956Z,5.26
2023-01-01T09:53:02.029Z,5.15
2023-01-01T09:55:34.587Z,5.39
2023-01-01T09:58:01.670Z,5.42
2023-01-01T10:00:28.628Z,5.50
2023-01-01T10:03:08.217Z,5.68
2023-01-01T10:05:43.046Z,5.77
2023-01-01T10:08:22.933Z,5.84
2023-01-01T10:11:11.562Z,5.93
2023-01-01T10:13:41.379Z,5.84
2023-01-01T10:16:24.562Z,5.98
2023-01-01T10:19:18.484Z,6.17
2023-01-01T10:21:47.557Z,6.11
2023-01-01T10:24:47.120Z,6.37
2023-01-01T10:27:31.249Z,6.48
2023-01-01T10:30:03.802Z,6.40
2023-01-01T10:32:33.320Z,6.46
2023-01-01T10:35:00.406Z,6.49
2023-01-01T10:37:32.888Z,6.77
2023-01-01T10:40:00.630Z,7.00
2023-01-01T10:42:27.633Z,7.05
2023-01-01T10:44:54.627Z,7.12
2023-01-01T10:47:28.758Z,7.38
2023-01-01T10:49:57.398Z,7.39
2023-01-01T10:52:34.802Z,7.52
2023-01-01T10:55:01.840Z,7.58
2023-01-01T10:57:35.565Z,7.85
2023-01-01T11:00:24.303Z,7.80
2023-01-01T11:03:19.771Z,8.13
2023-01-01T11:06:22.230Z,8.24
2023-01-01T11:08:51.163Z,8.19
2023-01-01T11:11:26.549Z,8.43
2023-01-01T11:13:54.652Z,8.59
2023-01-01T11:16:21.818Z,8.68
2023-01-01T11:18:49.677Z,8.82
2023-01-01T11:21:23.344Z,9.03
2023-01-01T11:23:51.584Z,8.87
2023-01-01T11:26:18.488Z,9.13
2023-01-01T11:29:16.664Z,9.22
2023-01-01T11:31:45.814Z,9.45
2023-01-01T11:34:35.916Z,9.58
2023-01-01T11:37:15.937Z,9.71
2023-01-01T11:39:44.416Z,9.75
2023-01-01T11:42:17.314Z,9.87
2023-01-01T11:44:46.118Z,9.82
2023-01-01T11:47:38.464Z,10.16
2023-01-01T11:50:14.881Z,10.23
2023-01-01T11:52:43.724Z,10.18
2023-01-01T11:55:31.946Z,10.43
2023-01-01T11:58:37.812Z,10.56
2023-01-01T12:01:19.607Z,10.66
2023-01-01T12:03:59.144Z,10.70
2023-01-01T12:06:26.029Z,10.90
2023-01-01T12:09:20.414Z,11.00
2023-01-01T12:12:05.545Z,11.11
2023-01-01T12:14:37.079Z,11.22
2023-01-01T12:17:20.367Z,11.29
2023-01-01T12:20:13.174Z,11.39
2023-01-01T12:22:40.829Z,11.36
2023-01-01T12:25:10.648Z,11.63
2023-01-01T12:27:46.763Z,11.73
2023-01-01T12:30:50.010Z,11.83
2023-01-01T12:33:26.183Z,11.87
2023-01-01T12:36:11.890Z,11.98
2023-01-01T12:38:48.370Z,12.07
2023-01-01T12:41:40.176Z,11.94
2023-01-01T12:44:40.179Z,11.97
2023-01-01T12:47:25.187Z,12.23
2023-01-01T12:50:05.170Z,12.28
2023-01-01T12:52:39.094Z,12.35
2023-01-01T12:55:24.508Z,12.41
2023-01-01T12:58:22.115Z,12.38
2023-01-01T13:01:21.129Z,12.37
2023-01-01T13:03:55.996Z,12.34
2023-01-01T13:06:31.629Z,12.48
2023-01-01T13:09:03.166Z,12.53
2023-01-01T13:11:31.159Z,12.66
2023-01-01T13:13:58.742Z,12.68
2023-01-01T13:16:55.291Z,12.69
2023-01-01T13:19:36.472Z,12.74
2023-01-01T13:22:42.066Z,12.63
2023-01-01T13:25:09.123Z,12.79
2023-01-01T13:27:57.750Z,12.81
2023-01-01T13:30:37.322Z,12.77
2023-01-01T13:33:24.977Z,12.81
2023-01-01T13:36:27.852Z,12.78
2023-01-01T13:38:58.749Z,12.61
2023-01-01T13:41:25.641Z,12.78
2023-01-01T13:44:19.344Z,12.73
2023-01-01T13:47:02.557Z,12.54
2023-01-01T13:50:06.010Z,12.63
2023-01-01T13:52:54.585Z,12.60
2023-01-01T13:55:36.724Z,12.53
2023-01-01T13:58:06.567Z,12.55
2023-01-01T14:00:52.212Z,12.53
2023-01-01T14:03:19.197Z,12.42
2023-01-01T14:05:59.465Z,12.40
2023-01-01T14:08:34.211Z,12.41
2023-01-01T14:11:02.421Z,12.23
2023-01-01T14:13:40.441Z,12.24
2023-01-01T14:16:11.033Z,12.16
2023-01-01T14:18:56.110Z,12.13
2023-01-01T14:21:24.756Z,12.14
2023-01-01T14:23:55.767Z,12.06
2023-01-01T14:26:24.254Z,11.97
2023-01-01T14:28:55.475Z,11.80
2023-01-01T14:31:24.909Z,11.88
2023-01-01T14:33:51.918Z,11.88
2023-01-01T14:36:28.667Z,11.76
2023-01-01T14:38:56.837Z,11.70
2023-01-01T14:41:29.587Z,11.71
2023-01-01T14:44:17.551Z,11.60
2023-01-01T14:46:46.405Z,11.46
2023-01-01T14:49:17.751Z,11.47
2023-01-01T14:51:47.197Z,11.45
2023-01-01T14:54:19.250Z,11.33
2023-01-01T14:56:47.820Z,11.27
2023-01-01T14:59:25.978Z,11.21
2023-01-01T15:02:11.775Z,11.18
2023-01-01T15:04:38.989Z,11.08
2023-01-01T15:07:06.078Z,11.03
2023-01-01T15:09:33.099Z,11.04
2023-01-01T15:12:00.146Z,11.00
2023-01-01T15:14:31.048Z,10.84
2023-01-01T15:17:08.678Z,10.85
2023-01-01T15:19:36.840Z,10.71
2023-01-01T15:22:11.899Z,10.72
2023-01-01T15:24:39.065Z,10.61
2023-01-01T15:27:07.010Z,10.57
2023-01-01T15:29:39.196Z,10.51
2023-01-01T15:32:07.868Z,10.48
2023-01-01T15:34:37.907Z,10.38
2023-01-01T15:37:21.224Z,10.27
2023-01-01T15:39:50.724Z,10.18
2023-01-01T15:42:35.656Z,10.20
2023-01-01T15:45:27.678Z,10.06
2023-01-01T15:47:56.416Z,10.03
2023-01-01T15:50:28.562Z,10.01
2023-01-01T15:53:00.111Z,9.96
2023-01-01T15:55:29.119Z,9.93
2023-01-01T15:57:56.080Z,9.83
2023-01-01T16:00:26.135Z,9.81
2023-01-01T16:02:54.427Z,9.74
2023-01-01T16:05:23.898Z,9.67
2023-01-01T16:08:04.793Z,9.62
2023-01-01T16:10:32.296Z,9.53
2023-01-01T16:12:59.410Z,9.50
2023-01-01T16:15:26.589Z,9.46
2023-01-01T16:17:53.571Z,9.26
2023-01-01T16:20:21.667Z,9.36
2023-01-01T16:22:48.710Z,9.23
2023-01-01T16:25:17.246Z,9.28
2023-01-01T16:27:44.289Z,9.19
2023-01-01T16:30:11.984Z,9.12
2023-01-01T16:32:39.013Z,8.99
2023-01-01T16:35:11.692Z,8.97
2023-01-01T16:37:39.000Z,9.04
2023-01-01T16:40:06.721Z,9.02
2023-01-01T16:42:33.670Z,8.84
2023-01-01T16:45:00.620Z,8.75
2023-01-01T16:47:27.570Z,8.78
2023-01-01T16:49:54.488Z,8.74
2023-01-01T16:52:21.454Z,8.76
2023-01-01T16:54:48.415Z,8.63
2023-01-01T16:57:15.409Z,8.66
2023-01-01T16:59:42.353Z,8.68
2023-01-01T17:02:10.470Z,8.52
2023-01-01T17:04:37.544Z,8.58
2023-01-01T17:07:04.529Z,8.47
2023-01-01T17:09:31.532Z,8.50
2023-01-01T17:11:58.466Z,8.32
2023-01-01T17:14:25.396Z,8.47
2023-01-01T17:16:55.434Z,8.32
2023-01-01T17:19:22.588Z,8.28
2023-01-01T17:21:49.633Z,8.11
2023-01-01T17:24:16.990Z,8.24
2023-01-01T17:26:44.035Z,8.27
2023-01-01T17:29:12.079Z,8.05
2023-01-01T17:31:39.138Z,8.05
2023-01-01T17:34:06.167Z,8.15
2023-01-01T17:36:33.290Z,7.95
2023-01-01T17:39:00.276Z,7.98
2023-01-01T17:41:27.300Z,7.98
2023-01-01T17:43:54.271Z,8.04
2023-01-01T17:46:28.694Z,8.05
2023-01-01T17:48:56.231Z,7.86
2023-01-01T17:51:23.998Z,7.84
2023-01-01T17:53:50.961Z,7.77
2023-01-01T17:56:18.611Z,7.83
2023-01-01T17:58:46.355Z,7.87
2023-01-01T18:01:13.387Z,7.86
2023-01-01T18:03:41.014Z,7.64
2023-01-01T18:06:08.088Z,7.81
2023-01-01T18:08:35.091Z,7.67
2023-01-01T18:11:02.015Z,7.53
2023-01-01T18:13:28.964Z,7.56
2023-01-01T18:16:03.219Z,7.49
2023-01-01T18:18:32.931Z,7.50
2023-01-01T18:21:07.109Z,7.51
2023-01-01T18:23:34.963Z,7.38
2023-01-01T18:26:02.844Z,7.31
2023-01-01T18:28:30.150Z,7.34
2023-01-01T18:31:03.775Z,7.29
2023-01-01T18:33:30.685Z,7.24
2023-01-01T18:35:57.763Z,7.11
2023-01-01T18:38:24.650Z,7.04
2023-01-01T18:41:00.174Z,6.99
2023-01-01T18:43:27.074Z,6.94
2023-01-01T18:45:53.982Z,6.89
2023-01-01T18:48:20.873Z,6.87
2023-01-01T18:50:47.646Z,6.83
2023-01-01T18:53:18.932Z,6.82
2023-01-01T18:55:46.820Z,6.79
2023-01-01T18:58:16.673Z,6.76
2023-01-01T19:00:43.574Z,6.73
2023-01-01T19:03:14.162Z,6.69
2023-01-01T19:05:41.063Z,6.67
2023-01-01T19:08:07.919Z,6.63
2023-01-01T19:10:38.791Z,6.61
2023-01-01T19:13:28.959Z,6.59
2023-01-01T19:16:03.215Z,6.55
2023-01-01T19:18:30.728Z,6.53
2023-01-01T19:21:01.906Z,6.52
2023-01-01T19:23:29.405Z,6.49
2023-01-01T19:25:56.269Z,6.47
2023-01-01T19:28:25.300Z,6.44
2023-01-01T19:30:52.112Z,6.40
2023-01-01T19:33:18.837Z,6.39
2023-01-01T19:35:45.765Z,6.38
2023-01-01T19:38:12.533Z,6.36
2023-01-01T19:40:39.302Z,6.33
2023-01-01T19:43:07.050Z,6.30
2023-01-01T19:45:34.112Z,6.28
2023-01-01T19:48:01.032Z,6.27
2023-01-01T19:50:27.963Z,6.24
2023-01-01T19:52:54.858Z,6.22
2023-01-01T19:55:21.660Z,6.20
2023-01-01T19:57:48.472Z,6.18
2023-01-01T20:00:15.468Z,6.15
2023-01-01T20:02:47.331Z,6.14
2023-01-01T20:05:15.009Z,6.12
2023-01-01T20:07:41.840Z,6.11
2023-01-01T20:10:08.920Z,6.08
2023-01-01T20:12:35.726Z,6.06
2023-01-01T20:15:02.536Z,6.06
2023-01-01T20:17:30.901Z,6.04
2023-01-01T20:19:58.553Z,6.03
2023-01-01T20:22:25.432Z,6.02
2023-01-01T20:24:52.284Z,6.00
2023-01-01T20:27:23.418Z,6.00
2023-01-01T20:29:50.595Z,5.98
2023-01-01T20:32:17.450Z,5.96
2023-01-01T20:34:44.247Z,5.95
2023-01-01T20:37:29.677Z,5.94
2023-01-01T20:39:56.523Z,5.93
2023-01-01T20:42:23.388Z,5.92
2023-01-01T20:44:50.244Z,5.90
2023-01-01T20:47:17.141Z,5.89
2023-01-01T20:49:44.042Z,5.87
2023-01-01T20:52:11.095Z,5.86
2023-01-01T20:54:38.540Z,5.85
2023-01-01T20:57:08.506Z,5.83
2023-01-01T20:59:37.071Z,5.83
2023-01-01T21:02:05.530Z,5.82
2023-01-01T21:04:32.576Z,5.80
2023-01-01T21:06:59.403Z,5.79
2023-01-01T21:09:26.221Z,5.78
2023-01-01T21:11:53.064Z,5.77
2023-01-01T21:14:19.982Z,5.75
2023-01-01T21:16:46.957Z,5.74
2023-01-01T21:19:13.907Z,5.73
2023-01-01T21:21:42.454Z,5.72
2023-01-01T21:24:20.301Z,5.71
2023-01-01T21:26:47.331Z,5.71
2023-01-01T21:29:15.030Z,5.69
2023-01-01T21:31:43.299Z,5.69
2023-01-01T21:34:22.478Z,5.66
2023-01-01T21:36:49.251Z,5.67
2023-01-01T21:39:16.607Z,5.66
2023-01-01T21:41:43.320Z,5.65
2023-01-01T21:44:11.381Z,5.63
2023-01-01T21:46:41.068Z,5.63
2023-01-01T21:49:24.123Z,5.62
2023-01-01T21:51:53.160Z,5.61
2023-01-01T21:54:25.427Z,5.61
2023-01-01T21:56:53.453Z,5.60
2023-01-01T21:59:32.214Z,5.59
2023-01-01T22:02:08.368Z,5.57
2023-01-01T22:04:41.610Z,5.57
2023-01-01T22:10:14.391Z,5.56
2023-01-01T22:12:41.383Z,5.56
2023-01-01T22:15:30.427Z,5.56
2023-01-01T22:18:02.532Z,5.55
2023-01-01T22:20:29.334Z,5.53
2023-01-01T22:23:01.690Z,5.53
2023-01-01T22:25:31.929Z,5.52
2023-01-01T22:28:25.036Z,5.52
2023-01-01T22:30:55.738Z,5.50
2023-01-01T22:33:27.256Z,5.49
2023-01-01T22:35:55.481Z,5.48
2023-01-01T22:38:22.402Z,5.47
2023-01-01T22:40:49.641Z,5.45
2023-01-01T22:43:17.473Z,5.43
2023-01-01T22:45:45.072Z,5.42
2023-01-01T22:48:38.155Z,5.41
2023-01-01T22:51:23.291Z,5.39
2023-01-01T22:53:50.136Z,5.38
2023-01-01T22:56:16.954Z,5.37
2023-01-01T22:58:43.786Z,5.36
2023-01-01T23:01:10.609Z,5.35
2023-01-01T23:03:37.475Z,5.33
2023-01-01T23:06:04.466Z,5.32
2023-01-01T23:08:31.271Z,5.30
2023-01-01T23:10:58.415Z,5.28
2023-01-01T23:13:43.882Z,5.28
2023-01-01T23:16:10.774Z,5.27
2023-01-01T23:18:37.658Z,5.26
2023-01-01T23:21:08.798Z,5.24
2023-01-01T23:23:35.639Z,5.25
2023-01-01T23:26:02.882Z,5.23
2023-01-01T23:28:30.186Z,5.23
2023-01-01T23:30:57.757Z,5.20
2023-01-01T23:33:24.621Z,5.19
2023-01-01T23:35:51.472Z,5.19
2023-01-01T23:38:18.329Z,5.18
2023-01-01T23:40:45.061Z,5.18
2023-01-01T23:43:11.874Z,5.17
2023-01-01T23:45:38.702Z,5.17
2023-01-01T23:48:05.573Z,5.14
2023-01-01T23:50:34.167Z,5.13
2023-01-01T23:53:00.986Z,5.13
2023-01-01T23:55:27.829Z,5.13
2023-01-01T23:57:54.637Z,5.13
